Terminal Aerodrome Forecast
Issued by NWS Huntsville, AL

Home | Current Version | Previous Version | Text Only | Print | Product List | Glossary On
Versions: 1 2 3 4 5 6 7 8 9 10 11 12 13 14 15 16 17 18 19 20 21 22 23 24 25 26 27
000
FTUS44 KHUN 092340
TAFHSV
TAF
KHSV 092340Z 1000/1024 31012G20KT P6SM SCT030 BKN050 OVC090
      TEMPO 1000/1004 -SHSN BKN035
     FM100400 31008KT P6SM SCT035
     FM101400 31012KT P6SM SCT250
     FM102100 27006KT P6SM SCT080 BKN150=

USA.gov is the U.S. government's official web portal to all federal, state and local government web resources and services.